sensor_id;sensor_type;location;lat;lon;timestamp;P1;durP1;ratioP1;P2;durP2;ratioP2
17606;SDS011;69222;52.242;20.980;2023-04-16T00:01:41;5.33;;;4.83;;
17606;SDS011;69222;52.242;20.980;2023-04-16T00:04:09;5.53;;;4.87;;
17606;SDS011;69222;52.242;20.980;2023-04-16T00:06:37;6.13;;;5.33;;
17606;SDS011;69222;52.242;20.980;2023-04-16T00:09:05;5.60;;;5.07;;
17606;SDS011;69222;52.242;20.980;2023-04-16T00:11:35;6.43;;;5.77;;
17606;SDS011;69222;52.242;20.980;2023-04-16T00:14:03;8.20;;;6.07;;
17606;SDS011;69222;52.242;20.980;2023-04-16T00:16:31;6.53;;;5.83;;
17606;SDS011;69222;52.242;20.980;2023-04-16T00:18:59;7.13;;;6.00;;
17606;SDS011;69222;52.242;20.980;2023-04-16T00:21:27;7.50;;;6.03;;
17606;SDS011;69222;52.242;20.980;2023-04-16T00:23:56;7.90;;;5.53;;
17606;SDS011;69222;52.242;20.980;2023-04-16T00:26:24;6.50;;;5.57;;
17606;SDS011;69222;52.242;20.980;2023-04-16T00:28:53;6.80;;;6.07;;
17606;SDS011;69222;52.242;20.980;2023-04-16T00:31:25;6.40;;;5.70;;
17606;SDS011;69222;52.242;20.980;2023-04-16T00:33:54;7.00;;;6.30;;
17606;SDS011;69222;52.242;20.980;2023-04-16T00:36:22;7.37;;;5.83;;
17606;SDS011;69222;52.242;20.980;2023-04-16T00:38:50;6.27;;;5.47;;
17606;SDS011;69222;52.242;20.980;2023-04-16T00:41:18;7.07;;;6.00;;
17606;SDS011;69222;52.242;20.980;2023-04-16T00:43:46;7.23;;;5.73;;
17606;SDS011;69222;52.242;20.980;2023-04-16T00:46:16;7.03;;;5.43;;
17606;SDS011;69222;52.242;20.980;2023-04-16T00:48:46;6.93;;;6.23;;
17606;SDS011;69222;52.242;20.980;2023-04-16T00:51:15;6.40;;;5.50;;
17606;SDS011;69222;52.242;20.980;2023-04-16T00:53:46;6.20;;;5.37;;
17606;SDS011;69222;52.242;20.980;2023-04-16T00:56:14;6.40;;;5.63;;
17606;SDS011;69222;52.242;20.980;2023-04-16T00:58:43;5.83;;;5.13;;
17606;SDS011;69222;52.242;20.980;2023-04-16T01:01:11;6.53;;;5.47;;
17606;SDS011;69222;52.242;20.980;2023-04-16T01:03:41;5.40;;;4.67;;
17606;SDS011;69222;52.242;20.980;2023-04-16T01:06:11;5.57;;;5.07;;
17606;SDS011;69222;52.242;20.980;2023-04-16T01:08:39;5.10;;;4.43;;
17606;SDS011;69222;52.242;20.980;2023-04-16T01:11:08;4.40;;;4.00;;
17606;SDS011;69222;52.242;20.980;2023-04-16T01:13:37;4.37;;;3.97;;
17606;SDS011;69222;52.242;20.980;2023-04-16T01:16:05;4.50;;;4.00;;
17606;SDS011;69222;52.242;20.980;2023-04-16T01:18:33;4.87;;;4.13;;
17606;SDS011;69222;52.242;20.980;2023-04-16T01:21:03;5.17;;;4.07;;
17606;SDS011;69222;52.242;20.980;2023-04-16T01:23:32;5.40;;;4.10;;
17606;SDS011;69222;52.242;20.980;2023-04-16T01:26:00;4.70;;;4.30;;
17606;SDS011;69222;52.242;20.980;2023-04-16T01:28:28;4.37;;;3.97;;
17606;SDS011;69222;52.242;20.980;2023-04-16T01:30:56;5.17;;;4.60;;
17606;SDS011;69222;52.242;20.980;2023-04-16T01:33:24;6.13;;;5.00;;
17606;SDS011;69222;52.242;20.980;2023-04-16T01:35:52;5.97;;;5.20;;
17606;SDS011;69222;52.242;20.980;2023-04-16T01:38:21;6.03;;;4.93;;
17606;SDS011;69222;52.242;20.980;2023-04-16T01:40:49;5.80;;;5.17;;
17606;SDS011;69222;52.242;20.980;2023-04-16T01:43:17;5.47;;;4.97;;
17606;SDS011;69222;52.242;20.980;2023-04-16T01:45:45;5.80;;;5.20;;
17606;SDS011;69222;52.242;20.980;2023-04-16T01:48:12;5.87;;;5.27;;
17606;SDS011;69222;52.242;20.980;2023-04-16T01:50:40;6.07;;;4.90;;
17606;SDS011;69222;52.242;20.980;2023-04-16T01:53:08;6.07;;;4.87;;
17606;SDS011;69222;52.242;20.980;2023-04-16T01:55:38;7.10;;;4.83;;
17606;SDS011;69222;52.242;20.980;2023-04-16T01:58:05;5.97;;;4.83;;
17606;SDS011;69222;52.242;20.980;2023-04-16T02:00:36;7.17;;;5.00;;
17606;SDS011;69222;52.242;20.980;2023-04-16T02:03:04;6.53;;;5.93;;
17606;SDS011;69222;52.242;20.980;2023-04-16T02:05:32;7.33;;;6.00;;
17606;SDS011;69222;52.242;20.980;2023-04-16T02:08:00;6.97;;;6.27;;
17606;SDS011;69222;52.242;20.980;2023-04-16T02:10:27;6.83;;;6.10;;
17606;SDS011;69222;52.242;20.980;2023-04-16T02:12:57;9.10;;;6.63;;
17606;SDS011;69222;52.242;20.980;2023-04-16T02:15:25;7.30;;;5.60;;
17606;SDS011;69222;52.242;20.980;2023-04-16T02:17:52;8.33;;;6.23;;
17606;SDS011;69222;52.242;20.980;2023-04-16T02:20:22;8.40;;;6.30;;
17606;SDS011;69222;52.242;20.980;2023-04-16T02:22:50;6.83;;;6.13;;
17606;SDS011;69222;52.242;20.980;2023-04-16T02:25:18;6.90;;;5.93;;
17606;SDS011;69222;52.242;20.980;2023-04-16T02:27:46;7.50;;;5.80;;
17606;SDS011;69222;52.242;20.980;2023-04-16T02:30:15;6.90;;;6.20;;
17606;SDS011;69222;52.242;20.980;2023-04-16T02:32:44;6.13;;;5.53;;
17606;SDS011;69222;52.242;20.980;2023-04-16T02:35:12;6.30;;;4.93;;
17606;SDS011;69222;52.242;20.980;2023-04-16T02:37:39;5.90;;;5.20;;
17606;SDS011;69222;52.242;20.980;2023-04-16T02:40:08;6.13;;;5.53;;
17606;SDS011;69222;52.242;20.980;2023-04-16T02:42:36;6.03;;;5.47;;
17606;SDS011;69222;52.242;20.980;2023-04-16T02:45:05;6.10;;;5.07;;
17606;SDS011;69222;52.242;20.980;2023-04-16T02:47:34;6.67;;;5.63;;
17606;SDS011;69222;52.242;20.980;2023-04-16T02:50:03;6.03;;;5.43;;
17606;SDS011;69222;52.242;20.980;2023-04-16T02:52:32;6.97;;;5.90;;
17606;SDS011;69222;52.242;20.980;2023-04-16T02:55:00;6.77;;;6.07;;
17606;SDS011;69222;52.242;20.980;2023-04-16T02:57:28;7.43;;;5.90;;
17606;SDS011;69222;52.242;20.980;2023-04-16T02:59:56;7.73;;;6.13;;
17606;SDS011;69222;52.242;20.980;2023-04-16T03:02:24;6.90;;;6.20;;
17606;SDS011;69222;52.242;20.980;2023-04-16T03:04:54;7.27;;;6.57;;
17606;SDS011;69222;52.242;20.980;2023-04-16T03:07:21;8.33;;;7.27;;
17606;SDS011;69222;52.242;20.980;2023-04-16T03:09:50;10.83;;;7.07;;
17606;SDS011;69222;52.242;20.980;2023-04-16T03:12:18;6.67;;;6.07;;
17606;SDS011;69222;52.242;20.980;2023-04-16T03:14:46;7.67;;;6.50;;
17606;SDS011;69222;52.242;20.980;2023-04-16T03:17:13;6.40;;;5.80;;
17606;SDS011;69222;52.242;20.980;2023-04-16T03:19:42;6.73;;;6.03;;
17606;SDS011;69222;52.242;20.980;2023-04-16T03:22:11;6.63;;;6.00;;
17606;SDS011;69222;52.242;20.980;2023-04-16T03:24:39;6.30;;;5.67;;
17606;SDS011;69222;52.242;20.980;2023-04-16T03:27:07;6.87;;;5.97;;
17606;SDS011;69222;52.242;20.980;2023-04-16T03:29:35;8.23;;;6.67;;
17606;SDS011;69222;52.242;20.980;2023-04-16T03:32:03;7.80;;;6.20;;
17606;SDS011;69222;52.242;20.980;2023-04-16T03:34:31;7.20;;;6.50;;
17606;SDS011;69222;52.242;20.980;2023-04-16T03:36:59;9.17;;;6.07;;
17606;SDS011;69222;52.242;20.980;2023-04-16T03:39:28;8.20;;;6.97;;
17606;SDS011;69222;52.242;20.980;2023-04-16T03:41:56;7.83;;;6.40;;
17606;SDS011;69222;52.242;20.980;2023-04-16T03:44:24;7.70;;;6.17;;
17606;SDS011;69222;52.242;20.980;2023-04-16T03:46:52;8.30;;;6.80;;
17606;SDS011;69222;52.242;20.980;2023-04-16T03:49:20;12.00;;;8.40;;
17606;SDS011;69222;52.242;20.980;2023-04-16T03:51:48;7.23;;;6.23;;
17606;SDS011;69222;52.242;20.980;2023-04-16T03:54:16;10.87;;;7.20;;
17606;SDS011;69222;52.242;20.980;2023-04-16T03:56:49;8.37;;;7.40;;
17606;SDS011;69222;52.242;20.980;2023-04-16T03:59:17;8.57;;;7.03;;
17606;SDS011;69222;52.242;20.980;2023-04-16T04:01:45;11.30;;;7.40;;
17606;SDS011;69222;52.242;20.980;2023-04-16T04:04:13;8.37;;;7.13;;
17606;SDS011;69222;52.242;20.980;2023-04-16T04:06:41;9.37;;;7.43;;
17606;SDS011;69222;52.242;20.980;2023-04-16T04:09:11;7.90;;;7.00;;
17606;SDS011;69222;52.242;20.980;2023-04-16T04:11:39;8.13;;;6.67;;
17606;SDS011;69222;52.242;20.980;2023-04-16T04:14:08;9.73;;;7.90;;
17606;SDS011;69222;52.242;20.980;2023-04-16T04:16:36;7.87;;;7.10;;
17606;SDS011;69222;52.242;20.980;2023-04-16T04:19:04;8.30;;;7.17;;
17606;SDS011;69222;52.242;20.980;2023-04-16T04:21:32;12.17;;;7.60;;
17606;SDS011;69222;52.242;20.980;2023-04-16T04:24:00;9.37;;;7.77;;
17606;SDS011;69222;52.242;20.980;2023-04-16T04:26:28;8.43;;;7.13;;
17606;SDS011;69222;52.242;20.980;2023-04-16T04:28:56;8.97;;;7.67;;
17606;SDS011;69222;52.242;20.980;2023-04-16T04:31:25;11.20;;;7.97;;
17606;SDS011;69222;52.242;20.980;2023-04-16T04:33:53;8.60;;;7.70;;
17606;SDS011;69222;52.242;20.980;2023-04-16T04:36:21;9.03;;;8.13;;
17606;SDS011;69222;52.242;20.980;2023-04-16T04:38:49;10.13;;;8.30;;
17606;SDS011;69222;52.242;20.980;2023-04-16T04:41:17;9.77;;;7.70;;
17606;SDS011;69222;52.242;20.980;2023-04-16T04:43:45;9.50;;;7.17;;
17606;SDS011;69222;52.242;20.980;2023-04-16T04:46:13;8.87;;;7.97;;
17606;SDS011;69222;52.242;20.980;2023-04-16T04:48:42;9.40;;;8.40;;
17606;SDS011;69222;52.242;20.980;2023-04-16T04:51:10;8.40;;;7.60;;
17606;SDS011;69222;52.242;20.980;2023-04-16T04:53:38;8.73;;;7.83;;
17606;SDS011;69222;52.242;20.980;2023-04-16T04:56:06;8.87;;;7.97;;
17606;SDS011;69222;52.242;20.980;2023-04-16T04:58:38;9.47;;;8.47;;
17606;SDS011;69222;52.242;20.980;2023-04-16T05:01:06;10.03;;;8.13;;
17606;SDS011;69222;52.242;20.980;2023-04-16T05:03:34;9.47;;;8.33;;
17606;SDS011;69222;52.242;20.980;2023-04-16T05:06:05;9.40;;;8.13;;
17606;SDS011;69222;52.242;20.980;2023-04-16T05:08:33;9.93;;;8.43;;
17606;SDS011;69222;52.242;20.980;2023-04-16T05:11:01;9.17;;;7.97;;
17606;SDS011;69222;52.242;20.980;2023-04-16T05:13:29;9.87;;;8.00;;
17606;SDS011;69222;52.242;20.980;2023-04-16T05:15:57;9.60;;;8.47;;
17606;SDS011;69222;52.242;20.980;2023-04-16T05:18:25;10.50;;;8.83;;
17606;SDS011;69222;52.242;20.980;2023-04-16T05:20:53;11.53;;;9.07;;
17606;SDS011;69222;52.242;20.980;2023-04-16T05:23:22;9.27;;;8.27;;
17606;SDS011;69222;52.242;20.980;2023-04-16T05:25:50;10.70;;;8.30;;
17606;SDS011;69222;52.242;20.980;2023-04-16T05:28:18;10.07;;;9.07;;
17606;SDS011;69222;52.242;20.980;2023-04-16T05:30:46;10.13;;;8.60;;
17606;SDS011;69222;52.242;20.980;2023-04-16T05:33:14;9.63;;;8.67;;
17606;SDS011;69222;52.242;20.980;2023-04-16T05:35:42;10.13;;;8.50;;
17606;SDS011;69222;52.242;20.980;2023-04-16T05:38:10;9.63;;;7.53;;
17606;SDS011;69222;52.242;20.980;2023-04-16T05:40:39;7.97;;;7.17;;
17606;SDS011;69222;52.242;20.980;2023-04-16T05:43:07;9.30;;;8.30;;
17606;SDS011;69222;52.242;20.980;2023-04-16T05:45:35;7.67;;;6.83;;
17606;SDS011;69222;52.242;20.980;2023-04-16T05:48:06;7.77;;;6.97;;
17606;SDS011;69222;52.242;20.980;2023-04-16T05:50:35;9.80;;;7.67;;
17606;SDS011;69222;52.242;20.980;2023-04-16T05:53:05;7.67;;;6.90;;
17606;SDS011;69222;52.242;20.980;2023-04-16T05:55:33;8.20;;;7.23;;
17606;SDS011;69222;52.242;20.980;2023-04-16T05:58:03;8.40;;;7.50;;
17606;SDS011;69222;52.242;20.980;2023-04-16T06:00:31;9.57;;;6.93;;
17606;SDS011;69222;52.242;20.980;2023-04-16T06:03:00;8.57;;;7.67;;
17606;SDS011;69222;52.242;20.980;2023-04-16T06:05:29;9.37;;;7.53;;
17606;SDS011;69222;52.242;20.980;2023-04-16T06:07:57;8.77;;;7.87;;
17606;SDS011;69222;52.242;20.980;2023-04-16T06:10:25;9.97;;;8.63;;
17606;SDS011;69222;52.242;20.980;2023-04-16T06:12:53;9.97;;;8.30;;
17606;SDS011;69222;52.242;20.980;2023-04-16T06:15:22;9.20;;;8.23;;
17606;SDS011;69222;52.242;20.980;2023-04-16T06:17:50;9.87;;;7.60;;
17606;SDS011;69222;52.242;20.980;2023-04-16T06:20:18;8.20;;;7.03;;
17606;SDS011;69222;52.242;20.980;2023-04-16T06:22:46;8.83;;;7.93;;
17606;SDS011;69222;52.242;20.980;2023-04-16T06:25:14;7.87;;;7.17;;
17606;SDS011;69222;52.242;20.980;2023-04-16T06:27:43;9.00;;;7.53;;
17606;SDS011;69222;52.242;20.980;2023-04-16T06:30:11;8.90;;;7.77;;
17606;SDS011;69222;52.242;20.980;2023-04-16T06:32:42;10.57;;;7.53;;
17606;SDS011;69222;52.242;20.980;2023-04-16T06:35:11;8.77;;;7.87;;
17606;SDS011;69222;52.242;20.980;2023-04-16T06:37:40;9.10;;;7.80;;
17606;SDS011;69222;52.242;20.980;2023-04-16T06:40:08;8.50;;;7.50;;
17606;SDS011;69222;52.242;20.980;2023-04-16T06:42:36;9.53;;;7.30;;
17606;SDS011;69222;52.242;20.980;2023-04-16T06:45:05;8.77;;;7.87;;
17606;SDS011;69222;52.242;20.980;2023-04-16T06:47:34;9.67;;;8.03;;
17606;SDS011;69222;52.242;20.980;2023-04-16T06:50:04;10.03;;;7.57;;
17606;SDS011;69222;52.242;20.980;2023-04-16T06:52:32;8.27;;;7.43;;
17606;SDS011;69222;52.242;20.980;2023-04-16T06:55:01;8.20;;;7.40;;
17606;SDS011;69222;52.242;20.980;2023-04-16T06:57:29;10.90;;;7.60;;
17606;SDS011;69222;52.242;20.980;2023-04-16T06:59:57;9.10;;;7.40;;
17606;SDS011;69222;52.242;20.980;2023-04-16T07:02:25;9.07;;;7.00;;
17606;SDS011;69222;52.242;20.980;2023-04-16T07:04:53;8.20;;;7.40;;
17606;SDS011;69222;52.242;20.980;2023-04-16T07:07:22;9.70;;;6.73;;
17606;SDS011;69222;52.242;20.980;2023-04-16T07:09:53;7.60;;;6.80;;
17606;SDS011;69222;52.242;20.980;2023-04-16T07:12:21;7.60;;;6.80;;
17606;SDS011;69222;52.242;20.980;2023-04-16T07:14:49;8.17;;;7.37;;
17606;SDS011;69222;52.242;20.980;2023-04-16T07:17:17;7.40;;;6.63;;
17606;SDS011;69222;52.242;20.980;2023-04-16T07:19:45;7.07;;;6.37;;
17606;SDS011;69222;52.242;20.980;2023-04-16T07:22:13;8.07;;;7.27;;
17606;SDS011;69222;52.242;20.980;2023-04-16T07:24:43;8.23;;;7.23;;
17606;SDS011;69222;52.242;20.980;2023-04-16T07:27:11;8.83;;;7.50;;
17606;SDS011;69222;52.242;20.980;2023-04-16T07:29:39;8.33;;;7.53;;
17606;SDS011;69222;52.242;20.980;2023-04-16T07:32:07;8.33;;;7.50;;
17606;SDS011;69222;52.242;20.980;2023-04-16T07:34:35;8.30;;;7.50;;
17606;SDS011;69222;52.242;20.980;2023-04-16T07:37:03;8.17;;;7.33;;
17606;SDS011;69222;52.242;20.980;2023-04-16T07:39:31;8.90;;;7.60;;
17606;SDS011;69222;52.242;20.980;2023-04-16T07:42:00;8.87;;;7.53;;
17606;SDS011;69222;52.242;20.980;2023-04-16T07:44:28;7.90;;;7.10;;
17606;SDS011;69222;52.242;20.980;2023-04-16T07:46:56;7.87;;;7.07;;
17606;SDS011;69222;52.242;20.980;2023-04-16T07:49:24;8.37;;;7.40;;
17606;SDS011;69222;52.242;20.980;2023-04-16T07:51:52;9.13;;;7.70;;
17606;SDS011;69222;52.242;20.980;2023-04-16T07:54:20;7.67;;;6.40;;
17606;SDS011;69222;52.242;20.980;2023-04-16T07:56:48;7.70;;;6.70;;
17606;SDS011;69222;52.242;20.980;2023-04-16T07:59:17;6.90;;;6.23;;
17606;SDS011;69222;52.242;20.980;2023-04-16T08:01:50;8.60;;;6.87;;
17606;SDS011;69222;52.242;20.980;2023-04-16T08:04:19;8.13;;;7.20;;
17606;SDS011;69222;52.242;20.980;2023-04-16T08:06:51;7.70;;;7.00;;
17606;SDS011;69222;52.242;20.980;2023-04-16T08:09:21;7.27;;;6.57;;
17606;SDS011;69222;52.242;20.980;2023-04-16T08:11:49;7.97;;;6.90;;
17606;SDS011;69222;52.242;20.980;2023-04-16T08:14:19;7.87;;;7.17;;
17606;SDS011;69222;52.242;20.980;2023-04-16T08:16:47;8.20;;;6.90;;
17606;SDS011;69222;52.242;20.980;2023-04-16T08:19:15;7.70;;;6.90;;
17606;SDS011;69222;52.242;20.980;2023-04-16T08:21:43;8.57;;;7.53;;
17606;SDS011;69222;52.242;20.980;2023-04-16T08:24:11;7.97;;;6.93;;
17606;SDS011;69222;52.242;20.980;2023-04-16T08:26:38;8.70;;;7.87;;
17606;SDS011;69222;52.242;20.980;2023-04-16T08:29:06;8.27;;;7.47;;
17606;SDS011;69222;52.242;20.980;2023-04-16T08:31:37;7.67;;;6.87;;
17606;SDS011;69222;52.242;20.980;2023-04-16T08:34:05;8.10;;;7.30;;
17606;SDS011;69222;52.242;20.980;2023-04-16T08:36:33;9.00;;;8.10;;
17606;SDS011;69222;52.242;20.980;2023-04-16T08:39:01;8.80;;;7.63;;
17606;SDS011;69222;52.242;20.980;2023-04-16T08:41:29;11.47;;;7.33;;
17606;SDS011;69222;52.242;20.980;2023-04-16T08:43:59;8.40;;;7.17;;
17606;SDS011;69222;52.242;20.980;2023-04-16T08:46:31;9.60;;;8.63;;
17606;SDS011;69222;52.242;20.980;2023-04-16T08:49:05;7.73;;;6.93;;
17606;SDS011;69222;52.242;20.980;2023-04-16T08:51:34;9.17;;;7.83;;
17606;SDS011;69222;52.242;20.980;2023-04-16T08:54:03;7.73;;;7.03;;
17606;SDS011;69222;52.242;20.980;2023-04-16T08:56:35;7.80;;;7.00;;
17606;SDS011;69222;52.242;20.980;2023-04-16T08:59:05;8.27;;;7.47;;
17606;SDS011;69222;52.242;20.980;2023-04-16T09:01:33;7.47;;;6.73;;
17606;SDS011;69222;52.242;20.980;2023-04-16T09:04:01;7.80;;;7.00;;
17606;SDS011;69222;52.242;20.980;2023-04-16T09:06:33;7.53;;;6.73;;
17606;SDS011;69222;52.242;20.980;2023-04-16T09:09:02;7.23;;;6.53;;
17606;SDS011;69222;52.242;20.980;2023-04-16T09:11:31;7.00;;;6.30;;
17606;SDS011;69222;52.242;20.980;2023-04-16T09:13:59;8.30;;;7.37;;
17606;SDS011;69222;52.242;20.980;2023-04-16T09:16:27;7.00;;;6.33;;
17606;SDS011;69222;52.242;20.980;2023-04-16T09:18:59;8.63;;;7.03;;
17606;SDS011;69222;52.242;20.980;2023-04-16T09:21:27;6.90;;;6.30;;
17606;SDS011;69222;52.242;20.980;2023-04-16T09:23:57;6.80;;;6.13;;
17606;SDS011;69222;52.242;20.980;2023-04-16T09:26:26;6.67;;;6.07;;
17606;SDS011;69222;52.242;20.980;2023-04-16T09:28:54;5.77;;;5.27;;
17606;SDS011;69222;52.242;20.980;2023-04-16T09:31:22;6.07;;;5.57;;
17606;SDS011;69222;52.242;20.980;2023-04-16T09:34:00;6.73;;;6.07;;
17606;SDS011;69222;52.242;20.980;2023-04-16T09:36:29;6.93;;;6.23;;
17606;SDS011;69222;52.242;20.980;2023-04-16T09:39:00;7.13;;;6.53;;
17606;SDS011;69222;52.242;20.980;2023-04-16T09:41:29;6.97;;;6.27;;
17606;SDS011;69222;52.242;20.980;2023-04-16T09:44:02;6.20;;;5.60;;
17606;SDS011;69222;52.242;20.980;2023-04-16T09:46:32;6.47;;;5.87;;
17606;SDS011;69222;52.242;20.980;2023-04-16T09:49:03;6.30;;;5.73;;
17606;SDS011;69222;52.242;20.980;2023-04-16T09:51:35;6.37;;;5.70;;
17606;SDS011;69222;52.242;20.980;2023-04-16T09:54:05;6.87;;;6.07;;
17606;SDS011;69222;52.242;20.980;2023-04-16T09:56:38;6.80;;;6.20;;
17606;SDS011;69222;52.242;20.980;2023-04-16T09:59:06;9.27;;;8.33;;
17606;SDS011;69222;52.242;20.980;2023-04-16T10:01:35;6.70;;;6.10;;
17606;SDS011;69222;52.242;20.980;2023-04-16T10:04:03;6.10;;;5.50;;
17606;SDS011;69222;52.242;20.980;2023-04-16T10:06:33;6.40;;;5.60;;
17606;SDS011;69222;52.242;20.980;2023-04-16T10:09:01;6.57;;;6.00;;
17606;SDS011;69222;52.242;20.980;2023-04-16T10:11:36;6.50;;;5.80;;
17606;SDS011;69222;52.242;20.980;2023-04-16T10:14:04;6.80;;;5.97;;
17606;SDS011;69222;52.242;20.980;2023-04-16T10:16:32;6.90;;;6.30;;
17606;SDS011;69222;52.242;20.980;2023-04-16T10:19:00;7.20;;;6.37;;
17606;SDS011;69222;52.242;20.980;2023-04-16T10:21:29;6.87;;;6.23;;
17606;SDS011;69222;52.242;20.980;2023-04-16T10:23:59;6.87;;;6.00;;
17606;SDS011;69222;52.242;20.980;2023-04-16T10:26:29;6.37;;;5.77;;
17606;SDS011;69222;52.242;20.980;2023-04-16T10:28:57;6.27;;;5.77;;
17606;SDS011;69222;52.242;20.980;2023-04-16T10:31:26;6.43;;;5.93;;
17606;SDS011;69222;52.242;20.980;2023-04-16T10:33:55;6.27;;;5.67;;
17606;SDS011;69222;52.242;20.980;2023-04-16T10:36:24;6.47;;;5.87;;
17606;SDS011;69222;52.242;20.980;2023-04-16T10:38:57;6.27;;;5.67;;
17606;SDS011;69222;52.242;20.980;2023-04-16T10:41:26;6.23;;;5.63;;
17606;SDS011;69222;52.242;20.980;2023-04-16T10:44:03;6.37;;;5.77;;
17606;SDS011;69222;52.242;20.980;2023-04-16T10:46:35;6.20;;;5.60;;
17606;SDS011;69222;52.242;20.980;2023-04-16T10:49:11;6.70;;;6.10;;
17606;SDS011;69222;52.242;20.980;2023-04-16T10:51:40;6.30;;;5.70;;
17606;SDS011;69222;52.242;20.980;2023-04-16T10:54:18;6.67;;;5.20;;
17606;SDS011;69222;52.242;20.980;2023-04-16T10:56:48;5.90;;;5.40;;
17606;SDS011;69222;52.242;20.980;2023-04-16T10:59:18;7.00;;;5.90;;
17606;SDS011;69222;52.242;20.980;2023-04-16T11:01:48;6.13;;;5.50;;
17606;SDS011;69222;52.242;20.980;2023-04-16T11:07:19;6.23;;;5.63;;
17606;SDS011;69222;52.242;20.980;2023-04-16T11:09:58;6.07;;;5.57;;
17606;SDS011;69222;52.242;20.980;2023-04-16T11:12:32;7.63;;;5.30;;
17606;SDS011;69222;52.242;20.980;2023-04-16T11:15:02;7.47;;;5.90;;
17606;SDS011;69222;52.242;20.980;2023-04-16T11:17:32;6.47;;;5.87;;
17606;SDS011;69222;52.242;20.980;2023-04-16T11:20:04;6.43;;;5.63;;
17606;SDS011;69222;52.242;20.980;2023-04-16T11:22:45;6.90;;;6.17;;
17606;SDS011;69222;52.242;20.980;2023-04-16T11:25:18;6.77;;;6.17;;
17606;SDS011;69222;52.242;20.980;2023-04-16T11:27:46;7.07;;;6.47;;
17606;SDS011;69222;52.242;20.980;2023-04-16T11:30:15;6.83;;;6.13;;
17606;SDS011;69222;52.242;20.980;2023-04-16T11:32:44;7.17;;;6.47;;
17606;SDS011;69222;52.242;20.980;2023-04-16T11:35:12;6.37;;;5.87;;
17606;SDS011;69222;52.242;20.980;2023-04-16T11:37:41;6.53;;;5.93;;
17606;SDS011;69222;52.242;20.980;2023-04-16T11:40:09;6.20;;;5.60;;
17606;SDS011;69222;52.242;20.980;2023-04-16T11:42:38;6.40;;;5.80;;
17606;SDS011;69222;52.242;20.980;2023-04-16T11:45:08;6.10;;;5.60;;
17606;SDS011;69222;52.242;20.980;2023-04-16T11:47:45;6.37;;;5.87;;
17606;SDS011;69222;52.242;20.980;2023-04-16T11:50:18;7.17;;;6.47;;
17606;SDS011;69222;52.242;20.980;2023-04-16T11:52:47;6.27;;;5.67;;
17606;SDS011;69222;52.242;20.980;2023-04-16T11:55:16;6.63;;;5.73;;
17606;SDS011;69222;52.242;20.980;2023-04-16T11:57:45;6.40;;;5.80;;
17606;SDS011;69222;52.242;20.980;2023-04-16T12:00:13;6.80;;;6.10;;
17606;SDS011;69222;52.242;20.980;2023-04-16T12:02:42;6.10;;;5.50;;
17606;SDS011;69222;52.242;20.980;2023-04-16T12:05:29;7.57;;;5.90;;
17606;SDS011;69222;52.242;20.980;2023-04-16T12:07:59;6.67;;;6.00;;
17606;SDS011;69222;52.242;20.980;2023-04-16T12:10:28;6.97;;;5.63;;
17606;SDS011;69222;52.242;20.980;2023-04-16T12:13:10;5.53;;;5.07;;
17606;SDS011;69222;52.242;20.980;2023-04-16T12:15:42;6.80;;;6.20;;
17606;SDS011;69222;52.242;20.980;2023-04-16T12:18:14;6.43;;;5.80;;
17606;SDS011;69222;52.242;20.980;2023-04-16T12:20:44;6.07;;;5.50;;
17606;SDS011;69222;52.242;20.980;2023-04-16T12:23:21;5.57;;;5.07;;
17606;SDS011;69222;52.242;20.980;2023-04-16T12:25:49;6.27;;;5.67;;
17606;SDS011;69222;52.242;20.980;2023-04-16T12:28:25;5.60;;;5.10;;
17606;SDS011;69222;52.242;20.980;2023-04-16T12:30:54;5.60;;;5.10;;
17606;SDS011;69222;52.242;20.980;2023-04-16T12:33:23;5.77;;;5.23;;
17606;SDS011;69222;52.242;20.980;2023-04-16T12:35:52;5.50;;;5.00;;
17606;SDS011;69222;52.242;20.980;2023-04-16T12:38:20;6.00;;;5.50;;
17606;SDS011;69222;52.242;20.980;2023-04-16T12:40:50;6.13;;;5.63;;
17606;SDS011;69222;52.242;20.980;2023-04-16T12:43:22;10.90;;;9.00;;
17606;SDS011;69222;52.242;20.980;2023-04-16T12:45:49;5.97;;;5.40;;
17606;SDS011;69222;52.242;20.980;2023-04-16T12:48:17;6.10;;;5.50;;
17606;SDS011;69222;52.242;20.980;2023-04-16T12:50:45;5.93;;;5.43;;
17606;SDS011;69222;52.242;20.980;2023-04-16T12:53:15;6.53;;;5.87;;
17606;SDS011;69222;52.242;20.980;2023-04-16T12:55:42;6.63;;;5.70;;
17606;SDS011;69222;52.242;20.980;2023-04-16T12:58:11;7.13;;;5.67;;
17606;SDS011;69222;52.242;20.980;2023-04-16T13:00:38;6.30;;;5.77;;
17606;SDS011;69222;52.242;20.980;2023-04-16T13:03:06;6.50;;;5.73;;
17606;SDS011;69222;52.242;20.980;2023-04-16T13:05:34;6.33;;;5.70;;
17606;SDS011;69222;52.242;20.980;2023-04-16T13:08:02;6.90;;;6.20;;
17606;SDS011;69222;52.242;20.980;2023-04-16T13:10:32;6.87;;;6.17;;
17606;SDS011;69222;52.242;20.980;2023-04-16T13:13:00;6.43;;;5.83;;
17606;SDS011;69222;52.242;20.980;2023-04-16T13:15:28;8.40;;;6.37;;
17606;SDS011;69222;52.242;20.980;2023-04-16T13:17:56;7.60;;;6.40;;
17606;SDS011;69222;52.242;20.980;2023-04-16T13:20:24;7.00;;;6.37;;
17606;SDS011;69222;52.242;20.980;2023-04-16T13:22:52;8.73;;;6.40;;
17606;SDS011;69222;52.242;20.980;2023-04-16T13:25:20;6.33;;;5.73;;
17606;SDS011;69222;52.242;20.980;2023-04-16T13:27:49;7.23;;;5.93;;
17606;SDS011;69222;52.242;20.980;2023-04-16T13:30:18;6.60;;;5.97;;
17606;SDS011;69222;52.242;20.980;2023-04-16T13:32:45;5.33;;;4.83;;
17606;SDS011;69222;52.242;20.980;2023-04-16T13:35:13;6.57;;;5.87;;
17606;SDS011;69222;52.242;20.980;2023-04-16T13:37:41;6.30;;;5.77;;
17606;SDS011;69222;52.242;20.980;2023-04-16T13:40:09;6.07;;;5.50;;
17606;SDS011;69222;52.242;20.980;2023-04-16T13:42:37;5.63;;;5.23;;
17606;SDS011;69222;52.242;20.980;2023-04-16T13:45:06;5.53;;;5.03;;
17606;SDS011;69222;52.242;20.980;2023-04-16T13:47:35;5.10;;;4.70;;
17606;SDS011;69222;52.242;20.980;2023-04-16T13:50:05;5.73;;;5.20;;
17606;SDS011;69222;52.242;20.980;2023-04-16T13:52:33;5.95;;;5.35;;
17606;SDS011;69222;52.242;20.980;2023-04-16T13:55:01;6.45;;;4.95;;
17606;SDS011;69222;52.242;20.980;2023-04-16T13:57:29;5.45;;;5.05;;
17606;SDS011;69222;52.242;20.980;2023-04-16T13:59:57;5.40;;;4.85;;
17606;SDS011;69222;52.242;20.980;2023-04-16T14:02:26;5.95;;;5.45;;
17606;SDS011;69222;52.242;20.980;2023-04-16T14:04:55;5.80;;;5.30;;
17606;SDS011;69222;52.242;20.980;2023-04-16T14:07:23;7.07;;;5.70;;
17606;SDS011;69222;52.242;20.980;2023-04-16T14:09:52;5.50;;;5.00;;
17606;SDS011;69222;52.242;20.980;2023-04-16T14:12:20;6.00;;;5.40;;
17606;SDS011;69222;52.242;20.980;2023-04-16T14:14:48;5.70;;;5.10;;
17606;SDS011;69222;52.242;20.980;2023-04-16T14:17:16;5.22;;;4.80;;
17606;SDS011;69222;52.242;20.980;2023-04-16T14:19:46;6.63;;;5.40;;
17606;SDS011;69222;52.242;20.980;2023-04-16T14:22:13;7.03;;;6.07;;
17606;SDS011;69222;52.242;20.980;2023-04-16T14:24:43;5.57;;;5.17;;
17606;SDS011;69222;52.242;20.980;2023-04-16T14:27:11;6.47;;;5.93;;
17606;SDS011;69222;52.242;20.980;2023-04-16T14:29:38;6.07;;;5.57;;
17606;SDS011;69222;52.242;20.980;2023-04-16T14:32:07;5.90;;;5.30;;
17606;SDS011;69222;52.242;20.980;2023-04-16T14:34:35;6.10;;;5.50;;
17606;SDS011;69222;52.242;20.980;2023-04-16T14:37:04;6.17;;;5.60;;
17606;SDS011;69222;52.242;20.980;2023-04-16T14:39:33;6.20;;;5.70;;
17606;SDS011;69222;52.242;20.980;2023-04-16T14:42:01;5.63;;;5.13;;
17606;SDS011;69222;52.242;20.980;2023-04-16T14:44:29;6.03;;;5.43;;
17606;SDS011;69222;52.242;20.980;2023-04-16T14:46:57;10.23;;;5.60;;